Time;durP1;ratioP1;P1;durP2;ratioP2;P2;SDS_P1;SDS_P2;PMS_P1;PMS_P2;Temp;Humidity;BMP_temperature;BMP_pressure;BME280_temperature;BME280_humidity;BME280_pressure;Samples;Min_cycle;Max_cycle;Signal;HPM_P1;HPM_P2
2022/11/18 00:00:55;;;;;;;6.90;2.37;;;;;;;;;;5112429;28;20280;-79
2022/11/18 00:03:22;;;;;;;13.23;2.33;;;;;;;;;;5114884;28;20285;-77
2022/11/18 00:05:55;;;;;;;12.50;2.57;;;;;;;;;;5114884;28;20677;-77
2022/11/18 00:08:22;;;;;;;9.80;2.60;;;;;;;;;;5114126;28;20232;-77
2022/11/18 00:10:50;;;;;;;12.00;2.60;;;;;;;;;;5114909;28;20740;-77
2022/11/18 00:16:02;;;;;;;9.87;2.30;;;;;;;;;;5094606;28;20194;-79
2022/11/18 00:18:30;;;;;;;10.17;2.50;;;;;;;;;;5093628;28;20598;-79
2022/11/18 00:21:02;;;;;;;10.90;2.57;;;;;;;;;;5094361;28;20236;-79
2022/11/18 00:23:29;;;;;;;9.27;2.30;;;;;;;;;;5095321;28;20232;-79
2022/11/18 00:25:57;;;;;;;9.57;2.60;;;;;;;;;;5109376;28;20236;-79
2022/11/18 00:28:24;;;;;;;10.93;2.87;;;;;;;;;;5100991;28;20226;-79
2022/11/18 00:30:51;;;;;;;11.03;3.10;;;;;;;;;;5094390;28;20233;-79
2022/11/18 00:33:18;;;;;;;11.70;2.90;;;;;;;;;;5094119;28;20336;-79
2022/11/18 00:35:53;;;;;;;10.60;2.70;;;;;;;;;;5093936;28;20281;-79
2022/11/18 00:38:22;;;;;;;10.43;2.60;;;;;;;;;;5112799;28;20740;-79
2022/11/18 00:40:49;;;;;;;7.93;2.03;;;;;;;;;;5097018;28;20225;-79
2022/11/18 00:43:18;;;;;;;10.67;2.37;;;;;;;;;;5094480;28;20281;-79
2022/11/18 00:45:48;;;;;;;7.73;2.20;;;;;;;;;;5093718;28;20602;-80
2022/11/18 00:48:20;;;;;;;13.53;2.50;;;;;;;;;;5094447;28;20283;-79
2022/11/18 00:50:47;;;;;;;9.57;2.20;;;;;;;;;;5093881;28;20662;-79
2022/11/18 00:53:17;;;;;;;15.67;2.30;;;;;;;;;;5096439;28;20312;-77
2022/11/18 00:55:49;;;;;;;8.63;2.20;;;;;;;;;;5113331;28;20198;-79
2022/11/18 00:58:17;;;;;;;9.77;1.80;;;;;;;;;;5114209;28;20198;-79
2022/11/18 01:00:44;;;;;;;8.47;1.70;;;;;;;;;;5108105;28;20230;-77
2022/11/18 01:03:12;;;;;;;11.77;2.37;;;;;;;;;;5097476;28;20273;-79
2022/11/18 01:05:40;;;;;;;6.97;2.30;;;;;;;;;;5110771;28;20650;-77
2022/11/18 01:08:08;;;;;;;12.37;2.70;;;;;;;;;;5104070;28;20283;-77
2022/11/18 01:10:36;;;;;;;11.60;2.50;;;;;;;;;;5103129;28;20272;-77
2022/11/18 01:13:19;;;;;;;7.87;2.43;;;;;;;;;;5097032;28;20586;-77
2022/11/18 01:15:47;;;;;;;9.33;2.20;;;;;;;;;;5114125;28;20198;-77
2022/11/18 01:18:15;;;;;;;10.97;2.20;;;;;;;;;;5113945;28;20628;-77
2022/11/18 01:20:42;;;;;;;10.30;2.17;;;;;;;;;;5113862;28;20289;-77
2022/11/18 01:23:09;;;;;;;13.00;2.50;;;;;;;;;;5101478;28;20221;-77
2022/11/18 01:25:37;;;;;;;17.03;2.70;;;;;;;;;;5102827;28;20234;-77
2022/11/18 01:28:06;;;;;;;9.97;2.60;;;;;;;;;;5102216;28;20290;-77
2022/11/18 01:30:34;;;;;;;8.33;2.47;;;;;;;;;;5111033;28;20748;-78
2022/11/18 01:33:02;;;;;;;13.00;2.40;;;;;;;;;;5092761;28;20222;-77
2022/11/18 01:35:29;;;;;;;14.07;2.57;;;;;;;;;;5093375;28;20202;-77
2022/11/18 01:37:56;;;;;;;14.10;2.47;;;;;;;;;;5092762;28;20240;-79
2022/11/18 01:40:23;;;;;;;10.37;2.20;;;;;;;;;;5090637;28;20281;-79
2022/11/18 01:42:51;;;;;;;11.63;2.27;;;;;;;;;;5097310;28;20233;-79
2022/11/18 01:45:26;;;;;;;9.30;1.90;;;;;;;;;;5104242;28;20277;-79
2022/11/18 01:47:56;;;;;;;11.40;1.90;;;;;;;;;;5092804;28;20234;-79
2022/11/18 01:50:25;;;;;;;9.93;2.03;;;;;;;;;;5092428;28;20618;-79
2022/11/18 01:52:53;;;;;;;8.67;1.43;;;;;;;;;;5093025;28;20269;-79
2022/11/18 01:55:25;;;;;;;9.67;2.03;;;;;;;;;;5092519;28;20290;-79
2022/11/18 01:57:54;;;;;;;9.83;1.77;;;;;;;;;;5093103;28;20233;-79
2022/11/18 02:00:23;;;;;;;11.97;1.87;;;;;;;;;;5092286;28;20603;-79
2022/11/18 02:02:53;;;;;;;10.33;1.73;;;;;;;;;;5092676;28;20233;-79
2022/11/18 02:05:20;;;;;;;9.23;2.07;;;;;;;;;;5102629;28;20280;-79
2022/11/18 02:07:48;;;;;;;10.47;2.50;;;;;;;;;;5113247;28;20230;-79
2022/11/18 02:10:21;;;;;;;6.67;1.80;;;;;;;;;;5111687;28;20276;-79
2022/11/18 02:12:48;;;;;;;12.00;2.10;;;;;;;;;;5107417;28;20730;-79
2022/11/18 02:15:16;;;;;;;10.57;1.70;;;;;;;;;;5094178;28;20268;-79
2022/11/18 02:17:54;;;;;;;16.30;2.30;;;;;;;;;;5104383;28;20198;-80
2022/11/18 02:20:35;;;;;;;9.63;2.00;;;;;;;;;;5112889;28;20647;-79
2022/11/18 02:23:17;;;;;;;13.23;2.20;;;;;;;;;;5102802;28;20281;-79
2022/11/18 02:25:48;;;;;;;13.57;2.20;;;;;;;;;;5101778;28;20288;-79
2022/11/18 02:28:26;;;;;;;11.90;1.93;;;;;;;;;;5092891;28;20225;-79
2022/11/18 02:30:58;;;;;;;9.43;2.20;;;;;;;;;;5095989;28;20247;-79
2022/11/18 02:33:27;;;;;;;11.70;2.13;;;;;;;;;;5092656;28;20249;-79
2022/11/18 02:35:57;;;;;;;7.40;2.10;;;;;;;;;;5096580;28;20288;-79
2022/11/18 02:38:27;;;;;;;10.13;2.30;;;;;;;;;;5109516;28;20248;-79
2022/11/18 02:40:57;;;;;;;8.27;2.07;;;;;;;;;;5094616;28;20286;-79
2022/11/18 02:43:28;;;;;;;8.70;1.87;;;;;;;;;;5094318;28;20575;-79
2022/11/18 02:45:59;;;;;;;17.53;2.50;;;;;;;;;;5098147;28;20288;-79
2022/11/18 02:48:28;;;;;;;11.70;2.63;;;;;;;;;;5112079;28;20285;-79
2022/11/18 02:50:56;;;;;;;9.97;2.17;;;;;;;;;;5111314;28;20293;-79
2022/11/18 02:53:24;;;;;;;12.83;2.30;;;;;;;;;;5101107;28;20253;-79
2022/11/18 02:55:52;;;;;;;10.40;2.00;;;;;;;;;;5106382;28;20226;-79
2022/11/18 02:58:21;;;;;;;9.57;2.10;;;;;;;;;;5101483;28;20194;-79
2022/11/18 03:00:53;;;;;;;8.40;2.10;;;;;;;;;;5107431;28;20229;-79
2022/11/18 03:03:25;;;;;;;11.80;2.30;;;;;;;;;;5092231;28;20286;-77
2022/11/18 03:05:54;;;;;;;11.67;2.10;;;;;;;;;;5095848;28;20198;-77
2022/11/18 03:08:26;;;;;;;8.60;2.17;;;;;;;;;;5110080;28;20309;-78
2022/11/18 03:11:00;;;;;;;13.53;2.30;;;;;;;;;;5091989;28;20794;-77
2022/11/18 03:13:32;;;;;;;12.70;2.13;;;;;;;;;;5092166;28;20719;-79
2022/11/18 03:16:01;;;;;;;11.70;2.23;;;;;;;;;;5112834;28;20633;-78
2022/11/18 03:18:34;;;;;;;14.17;2.33;;;;;;;;;;5105524;28;20285;-79
2022/11/18 03:21:03;;;;;;;17.23;2.50;;;;;;;;;;5095891;28;20237;-79
2022/11/18 03:23:32;;;;;;;10.93;1.97;;;;;;;;;;5095727;28;20245;-79
2022/11/18 03:26:01;;;;;;;7.37;1.73;;;;;;;;;;5107776;28;20643;-79
2022/11/18 03:28:31;;;;;;;10.80;2.10;;;;;;;;;;5115774;27;20339;-79
2022/11/18 03:31:00;;;;;;;13.63;2.67;;;;;;;;;;5096887;28;20286;-79
2022/11/18 03:33:31;;;;;;;9.07;2.20;;;;;;;;;;5094227;28;20319;-79
2022/11/18 03:36:01;;;;;;;10.40;1.80;;;;;;;;;;5074018;28;20321;-79
2022/11/18 03:38:30;;;;;;;16.13;2.07;;;;;;;;;;5075235;28;20246;-79
2022/11/18 03:41:00;;;;;;;8.07;1.93;;;;;;;;;;5075155;28;20249;-79
2022/11/18 03:43:30;;;;;;;7.07;2.33;;;;;;;;;;5114388;28;20276;-79
2022/11/18 03:46:00;;;;;;;10.47;2.40;;;;;;;;;;5099677;28;20257;-79
2022/11/18 03:48:30;;;;;;;10.90;2.17;;;;;;;;;;5095428;28;20611;-79
2022/11/18 03:51:00;;;;;;;12.83;2.40;;;;;;;;;;5095255;28;20682;-79
2022/11/18 03:53:31;;;;;;;13.10;2.27;;;;;;;;;;5095128;28;20237;-79
2022/11/18 03:56:01;;;;;;;12.43;2.33;;;;;;;;;;5097778;28;20336;-79
2022/11/18 03:58:31;;;;;;;8.00;2.00;;;;;;;;;;5105044;28;20277;-79
2022/11/18 04:01:00;;;;;;;12.10;2.03;;;;;;;;;;5095229;28;20199;-79
2022/11/18 04:03:28;;;;;;;11.83;2.40;;;;;;;;;;5094462;28;20289;-79
2022/11/18 04:05:58;;;;;;;7.97;2.17;;;;;;;;;;5095738;28;20194;-79
2022/11/18 04:08:28;;;;;;;12.93;2.30;;;;;;;;;;5094709;28;20285;-79
2022/11/18 04:11:00;;;;;;;12.17;2.67;;;;;;;;;;5094860;28;20666;-79
2022/11/18 04:13:31;;;;;;;9.07;2.57;;;;;;;;;;5093988;28;20238;-79
2022/11/18 04:15:58;;;;;;;8.83;2.07;;;;;;;;;;5095062;28;20237;-79
2022/11/18 04:18:26;;;;;;;11.20;2.13;;;;;;;;;;5108523;28;20284;-79
2022/11/18 04:20:53;;;;;;;13.03;2.53;;;;;;;;;;5113792;28;20231;-79
2022/11/18 04:23:20;;;;;;;12.77;2.57;;;;;;;;;;5103335;28;20222;-79
2022/11/18 04:25:47;;;;;;;14.13;2.30;;;;;;;;;;5104068;28;20287;-80
2022/11/18 04:28:16;;;;;;;12.27;2.00;;;;;;;;;;5099904;28;20230;-79
2022/11/18 04:30:43;;;;;;;12.33;2.20;;;;;;;;;;5099616;28;20753;-79
2022/11/18 04:33:10;;;;;;;10.00;2.20;;;;;;;;;;5114786;28;20285;-79
2022/11/18 04:35:37;;;;;;;11.90;2.07;;;;;;;;;;5111901;28;20306;-79
2022/11/18 04:38:04;;;;;;;15.23;2.67;;;;;;;;;;5094048;28;20292;-79
2022/11/18 04:40:31;;;;;;;13.13;2.40;;;;;;;;;;5093874;28;20700;-79
2022/11/18 04:42:59;;;;;;;10.97;1.90;;;;;;;;;;5104740;28;20284;-79
2022/11/18 04:45:29;;;;;;;12.53;2.20;;;;;;;;;;5094263;28;20197;-79
2022/11/18 04:47:56;;;;;;;8.33;1.47;;;;;;;;;;5094198;28;20210;-79
2022/11/18 04:50:23;;;;;;;9.53;1.97;;;;;;;;;;5094432;28;20642;-79
2022/11/18 04:52:51;;;;;;;14.63;1.90;;;;;;;;;;5093899;28;20294;-79
2022/11/18 04:55:19;;;;;;;7.13;1.50;;;;;;;;;;5093486;28;20309;-78
2022/11/18 04:57:46;;;;;;;13.93;2.30;;;;;;;;;;5094059;28;20194;-79
2022/11/18 05:00:13;;;;;;;11.40;2.10;;;;;;;;;;5094544;28;20246;-79
2022/11/18 05:02:42;;;;;;;7.57;1.80;;;;;;;;;;5108161;28;20720;-79
2022/11/18 05:05:10;;;;;;;10.37;2.10;;;;;;;;;;5098950;28;20769;-79
2022/11/18 05:07:37;;;;;;;10.10;2.23;;;;;;;;;;5100427;28;20194;-79
2022/11/18 05:10:05;;;;;;;12.07;2.57;;;;;;;;;;5094607;28;20253;-79
2022/11/18 05:12:51;;;;;;;10.80;2.00;;;;;;;;;;5093787;28;20284;-79
2022/11/18 05:15:19;;;;;;;6.93;1.97;;;;;;;;;;5104569;28;20314;-79
2022/11/18 05:17:47;;;;;;;7.93;2.10;;;;;;;;;;5113795;27;20241;-79
2022/11/18 05:20:14;;;;;;;7.87;1.90;;;;;;;;;;5114003;28;20296;-79
2022/11/18 05:22:42;;;;;;;11.10;2.00;;;;;;;;;;5112365;28;20280;-78
2022/11/18 05:25:09;;;;;;;10.77;1.90;;;;;;;;;;5112964;28;20625;-78
2022/11/18 05:27:37;;;;;;;8.87;2.13;;;;;;;;;;5098971;28;20666;-79
2022/11/18 05:30:04;;;;;;;14.23;2.17;;;;;;;;;;5098063;28;20296;-79
2022/11/18 05:32:34;;;;;;;8.23;2.20;;;;;;;;;;5109546;28;20289;-79
2022/11/18 05:35:06;;;;;;;11.10;1.97;;;;;;;;;;5093326;28;20253;-79
2022/11/18 05:37:33;;;;;;;11.03;2.20;;;;;;;;;;5092997;28;20240;-79
2022/11/18 05:40:01;;;;;;;7.67;1.70;;;;;;;;;;5092845;28;20288;-79
2022/11/18 05:45:14;;;;;;;11.30;2.73;;;;;;;;;;5093473;28;20196;-79
2022/11/18 05:50:24;;;;;;;10.20;2.50;;;;;;;;;;5099789;28;20707;-78
2022/11/18 05:52:51;;;;;;;12.30;2.03;;;;;;;;;;5075323;28;20199;-79
2022/11/18 05:55:20;;;;;;;7.23;2.10;;;;;;;;;;5072669;28;20305;-78
2022/11/18 05:57:47;;;;;;;8.30;1.90;;;;;;;;;;5072881;28;20235;-79
2022/11/18 06:00:15;;;;;;;13.20;2.40;;;;;;;;;;5073010;28;20287;-78
2022/11/18 06:02:43;;;;;;;10.40;1.90;;;;;;;;;;5100790;28;20230;-78
2022/11/18 06:05:10;;;;;;;8.57;1.80;;;;;;;;;;5096590;28;20293;-85
2022/11/18 06:07:41;;;;;;;8.07;1.70;;;;;;;;;;5102858;28;20288;-85
2022/11/18 06:10:08;;;;;;;9.40;1.87;;;;;;;;;;5096159;28;20265;-85
2022/11/18 06:12:37;;;;;;;7.17;2.03;;;;;;;;;;5090634;28;20285;-85
2022/11/18 06:15:06;;;;;;;6.10;1.60;;;;;;;;;;5097798;28;20698;-87
2022/11/18 06:17:36;;;;;;;10.43;1.80;;;;;;;;;;5092355;28;20225;-85
2022/11/18 06:20:04;;;;;;;10.97;1.80;;;;;;;;;;5096128;28;20222;-87
2022/11/18 06:22:31;;;;;;;5.13;1.70;;;;;;;;;;5101477;28;20229;-87
2022/11/18 06:25:01;;;;;;;7.40;1.80;;;;;;;;;;5095200;28;20194;-87
2022/11/18 06:27:34;;;;;;;14.10;2.10;;;;;;;;;;5107029;28;20282;-82
2022/11/18 06:30:02;;;;;;;11.17;2.50;;;;;;;;;;5102950;28;20297;-83
2022/11/18 06:32:29;;;;;;;12.63;2.30;;;;;;;;;;5092874;28;20234;-83
2022/11/18 06:34:56;;;;;;;9.33;2.30;;;;;;;;;;5096148;28;20228;-83
2022/11/18 06:37:23;;;;;;;12.17;2.37;;;;;;;;;;5086134;28;20671;-85
2022/11/18 06:39:51;;;;;;;10.70;2.50;;;;;;;;;;5100390;28;20281;-84
2022/11/18 06:45:00;;;;;;;13.13;2.33;;;;;;;;;;5092188;28;20243;-83
2022/11/18 06:47:27;;;;;;;7.20;2.40;;;;;;;;;;5080420;28;20639;-82
2022/11/18 06:49:54;;;;;;;7.63;1.83;;;;;;;;;;5111231;28;20288;-81
2022/11/18 06:52:22;;;;;;;15.03;3.00;;;;;;;;;;5113316;28;20280;-81
2022/11/18 06:54:49;;;;;;;10.27;2.57;;;;;;;;;;5116451;28;20249;-81
2022/11/18 06:57:16;;;;;;;9.43;2.77;;;;;;;;;;5100158;28;20241;-82
2022/11/18 06:59:45;;;;;;;9.73;2.80;;;;;;;;;;5096249;28;20229;-81
2022/11/18 07:02:12;;;;;;;11.03;3.10;;;;;;;;;;5096457;28;20230;-81
2022/11/18 07:04:39;;;;;;;10.17;2.80;;;;;;;;;;5095295;28;20230;-81
2022/11/18 07:07:09;;;;;;;12.97;2.87;;;;;;;;;;5095953;28;20263;-82
2022/11/18 07:09:39;;;;;;;14.23;3.07;;;;;;;;;;5095806;28;20651;-81
2022/11/18 07:12:07;;;;;;;15.50;3.03;;;;;;;;;;5095866;28;20198;-82
2022/11/18 07:14:34;;;;;;;10.73;2.90;;;;;;;;;;5096265;28;20269;-81
2022/11/18 07:17:02;;;;;;;9.83;2.80;;;;;;;;;;5096045;28;20241;-82
2022/11/18 07:19:29;;;;;;;15.70;3.50;;;;;;;;;;5097472;28;20241;-82
2022/11/18 07:21:58;;;;;;;11.80;3.27;;;;;;;;;;5116042;28;20285;-81
2022/11/18 07:24:25;;;;;;;11.33;3.07;;;;;;;;;;5116392;28;20205;-81
2022/11/18 07:26:53;;;;;;;13.20;3.10;;;;;;;;;;5097039;28;20259;-81
2022/11/18 07:29:20;;;;;;;9.90;3.40;;;;;;;;;;5104304;28;20214;-81
2022/11/18 07:31:48;;;;;;;12.67;3.43;;;;;;;;;;5095482;28;20293;-81
2022/11/18 07:34:16;;;;;;;15.60;3.40;;;;;;;;;;5095237;28;20273;-81
2022/11/18 07:36:43;;;;;;;9.97;3.50;;;;;;;;;;5095857;28;20305;-81
2022/11/18 07:39:11;;;;;;;17.53;3.57;;;;;;;;;;5095825;28;20630;-81
2022/11/18 07:41:40;;;;;;;17.37;3.90;;;;;;;;;;5095425;28;20735;-81
2022/11/18 07:44:08;;;;;;;13.27;3.80;;;;;;;;;;5095188;28;20204;-81
2022/11/18 07:46:36;;;;;;;15.37;3.83;;;;;;;;;;5095542;28;20222;-82
2022/11/18 07:49:04;;;;;;;13.03;4.17;;;;;;;;;;5094444;28;20285;-81
2022/11/18 07:51:34;;;;;;;14.60;4.07;;;;;;;;;;5095516;28;20275;-81
2022/11/18 07:54:02;;;;;;;13.13;4.07;;;;;;;;;;5095558;28;20194;-81
2022/11/18 07:56:29;;;;;;;11.97;3.27;;;;;;;;;;5095109;28;20383;-81
2022/11/18 07:58:56;;;;;;;12.33;3.80;;;;;;;;;;5094965;28;20285;-81
2022/11/18 08:01:27;;;;;;;9.20;3.70;;;;;;;;;;5095063;28;20629;-81
2022/11/18 08:03:55;;;;;;;10.73;3.23;;;;;;;;;;5094500;28;20225;-81
2022/11/18 08:06:22;;;;;;;8.67;3.07;;;;;;;;;;5095130;28;20225;-82
2022/11/18 08:08:51;;;;;;;12.10;4.57;;;;;;;;;;5094869;28;20755;-82
2022/11/18 08:11:19;;;;;;;12.80;5.00;;;;;;;;;;5094610;28;20280;-82
2022/11/18 08:13:46;;;;;;;17.10;6.60;;;;;;;;;;5094940;28;20237;-82
2022/11/18 08:16:15;;;;;;;10.90;5.33;;;;;;;;;;5103094;28;20304;-82
2022/11/18 08:18:42;;;;;;;10.17;4.10;;;;;;;;;;5114504;28;20752;-82
2022/11/18 08:21:10;;;;;;;8.87;3.10;;;;;;;;;;5094256;28;20244;-82
2022/11/18 08:23:37;;;;;;;12.43;3.40;;;;;;;;;;5094743;28;20202;-82
2022/11/18 08:26:06;;;;;;;9.03;3.80;;;;;;;;;;5094181;28;20754;-83
2022/11/18 08:28:34;;;;;;;10.23;4.80;;;;;;;;;;5094090;28;20259;-82
2022/11/18 08:31:01;;;;;;;12.07;4.23;;;;;;;;;;5099020;28;20276;-82
2022/11/18 08:33:28;;;;;;;10.87;4.80;;;;;;;;;;5078057;28;20293;-83
2022/11/18 08:35:56;;;;;;;17.03;6.60;;;;;;;;;;5114704;28;20312;-82
2022/11/18 08:38:23;;;;;;;14.97;6.13;;;;;;;;;;5096279;28;20233;-82
2022/11/18 08:40:50;;;;;;;9.27;4.32;;;;;;;;;;5094689;28;20205;-82
2022/11/18 08:43:19;;;;;;;10.60;4.20;;;;;;;;;;5073947;28;20229;-83
2022/11/18 08:45:47;;;;;;;11.23;3.47;;;;;;;;;;5073889;28;20624;-83
2022/11/18 08:48:14;;;;;;;8.98;3.90;;;;;;;;;;5073627;28;20670;-83
2022/11/18 08:50:42;;;;;;;6.72;3.20;;;;;;;;;;5074059;28;20242;-82
2022/11/18 08:53:09;;;;;;;9.90;3.53;;;;;;;;;;5073754;28;20195;-83
2022/11/18 08:55:36;;;;;;;7.28;3.05;;;;;;;;;;5078179;28;20247;-83
2022/11/18 08:58:03;;;;;;;7.88;2.55;;;;;;;;;;5102990;28;20193;-83
2022/11/18 09:00:32;;;;;;;6.70;2.63;;;;;;;;;;5114002;28;20236;-83
2022/11/18 09:02:59;;;;;;;8.32;1.92;;;;;;;;;;5112538;28;20245;-84
2022/11/18 09:05:26;;;;;;;7.75;2.08;;;;;;;;;;5076108;28;20227;-83
2022/11/18 09:07:53;;;;;;;6.05;1.90;;;;;;;;;;5107381;28;20609;-83
2022/11/18 09:10:20;;;;;;;6.80;2.13;;;;;;;;;;5094979;28;20262;-83
2022/11/18 09:12:48;;;;;;;4.85;1.73;;;;;;;;;;5093454;28;20238;-83
2022/11/18 09:15:15;;;;;;;7.18;2.22;;;;;;;;;;5098094;28;20256;-84
2022/11/18 09:17:44;;;;;;;7.57;2.35;;;;;;;;;;5113341;28;20202;-83
2022/11/18 09:20:12;;;;;;;5.78;1.83;;;;;;;;;;5100735;28;20248;-84
2022/11/18 09:22:39;;;;;;;6.45;1.90;;;;;;;;;;5093575;28;20195;-83
2022/11/18 09:25:07;;;;;;;6.72;2.15;;;;;;;;;;5093527;28;20252;-84
2022/11/18 09:27:35;;;;;;;6.45;1.80;;;;;;;;;;5110827;28;20717;-84
2022/11/18 09:30:02;;;;;;;5.50;1.20;;;;;;;;;;5110460;28;20296;-84
2022/11/18 09:32:29;;;;;;;7.25;1.80;;;;;;;;;;5113529;28;20289;-84
2022/11/18 09:34:58;;;;;;;6.13;1.88;;;;;;;;;;5113352;28;20284;-84
2022/11/18 09:37:25;;;;;;;6.45;2.20;;;;;;;;;;5113639;28;20230;-83
2022/11/18 09:39:52;;;;;;;8.63;2.20;;;;;;;;;;5113605;28;20202;-84
2022/11/18 09:42:30;;;;;;;11.18;2.25;;;;;;;;;;5113861;28;20288;-84
2022/11/18 09:45:06;;;;;;;8.98;2.08;;;;;;;;;;5113182;28;20237;-84
2022/11/18 09:47:34;;;;;;;7.28;1.77;;;;;;;;;;5113802;28;20707;-84
2022/11/18 09:50:04;;;;;;;5.05;1.58;;;;;;;;;;5109944;28;20229;-84
2022/11/18 09:52:34;;;;;;;7.75;2.00;;;;;;;;;;5093364;28;20241;-84
2022/11/18 09:55:01;;;;;;;7.05;1.63;;;;;;;;;;5093315;28;20734;-84
2022/11/18 09:57:35;;;;;;;8.40;1.90;;;;;;;;;;5113199;28;20232;-84
2022/11/18 10:00:02;;;;;;;9.15;1.92;;;;;;;;;;5112904;28;20636;-84
2022/11/18 10:02:35;;;;;;;9.65;1.70;;;;;;;;;;5113218;28;20619;-84
2022/11/18 10:05:15;;;;;;;8.90;1.92;;;;;;;;;;5110214;28;20191;-84
2022/11/18 10:07:45;;;;;;;7.72;1.73;;;;;;;;;;5113262;28;20233;-84
2022/11/18 10:10:15;;;;;;;7.03;1.60;;;;;;;;;;5111723;28;20306;-84
2022/11/18 10:12:47;;;;;;;5.72;1.40;;;;;;;;;;5112320;28;20288;-84
2022/11/18 10:15:20;;;;;;;6.32;1.45;;;;;;;;;;5101458;28;20757;-84
2022/11/18 10:17:51;;;;;;;6.50;1.55;;;;;;;;;;5112950;28;20848;-84
2022/11/18 10:20:29;;;;;;;5.90;1.35;;;;;;;;;;5102650;28;20246;-84
2022/11/18 10:22:59;;;;;;;7.32;1.60;;;;;;;;;;5110808;28;20288;-82
2022/11/18 10:25:26;;;;;;;5.85;1.35;;;;;;;;;;5093149;28;21190;-84
2022/11/18 10:27:53;;;;;;;6.10;1.27;;;;;;;;;;5096051;28;20230;-84
2022/11/18 10:30:22;;;;;;;7.65;1.77;;;;;;;;;;5096606;28;20309;-84
2022/11/18 10:32:56;;;;;;;7.93;1.60;;;;;;;;;;5097140;28;20649;-84
2022/11/18 10:35:26;;;;;;;5.38;1.27;;;;;;;;;;5095873;28;20261;-84
2022/11/18 10:38:05;;;;;;;6.72;1.50;;;;;;;;;;5117435;28;20232;-84
2022/11/18 10:40:33;;;;;;;5.07;1.42;;;;;;;;;;5100851;28;20236;-84
2022/11/18 10:43:00;;;;;;;5.13;1.58;;;;;;;;;;5096547;28;20289;-84
2022/11/18 10:45:29;;;;;;;8.43;1.58;;;;;;;;;;5096605;28;20270;-84
2022/11/18 10:48:00;;;;;;;7.75;1.55;;;;;;;;;;5096398;28;20718;-84
2022/11/18 10:50:36;;;;;;;4.63;1.10;;;;;;;;;;5096168;28;21033;-84
2022/11/18 10:53:04;;;;;;;6.72;1.40;;;;;;;;;;5096716;28;20208;-85
2022/11/18 10:55:31;;;;;;;5.57;1.63;;;;;;;;;;5096594;28;20999;-85
2022/11/18 10:58:01;;;;;;;4.45;1.50;;;;;;;;;;5098516;28;20233;-84
2022/11/18 11:00:43;;;;;;;5.80;1.40;;;;;;;;;;5100931;28;20678;-83
2022/11/18 11:03:27;;;;;;;6.32;1.60;;;;;;;;;;5099315;28;20237;-84
2022/11/18 11:06:14;;;;;;;6.32;1.55;;;;;;;;;;5096696;28;20214;-84
2022/11/18 11:08:52;;;;;;;6.43;1.60;;;;;;;;;;5095718;28;20213;-84
2022/11/18 11:11:25;;;;;;;5.15;1.27;;;;;;;;;;5095690;28;20230;-84
2022/11/18 11:13:54;;;;;;;8.43;2.05;;;;;;;;;;5095487;28;20623;-84
2022/11/18 11:16:22;;;;;;;5.32;1.35;;;;;;;;;;5096198;28;20320;-84
2022/11/18 11:18:53;;;;;;;5.80;1.80;;;;;;;;;;5095639;28;20236;-84
2022/11/18 11:21:23;;;;;;;6.03;1.35;;;;;;;;;;5095098;28;20283;-85
2022/11/18 11:23:52;;;;;;;6.57;1.38;;;;;;;;;;5110012;28;20202;-84
2022/11/18 11:26:22;;;;;;;5.35;1.52;;;;;;;;;;5104301;28;20226;-85
2022/11/18 11:28:54;;;;;;;7.35;1.73;;;;;;;;;;5095936;28;20218;-85
2022/11/18 11:31:30;;;;;;;5.20;1.20;;;;;;;;;;5096016;28;20238;-84
2022/11/18 11:34:00;;;;;;;5.47;1.40;;;;;;;;;;5110945;28;20232;-84
2022/11/18 11:36:40;;;;;;;6.10;1.52;;;;;;;;;;5111273;27;20279;-84
2022/11/18 11:39:25;;;;;;;7.40;1.92;;;;;;;;;;5094606;28;20240;-84
2022/11/18 11:41:55;;;;;;;5.30;1.40;;;;;;;;;;5095525;28;20206;-84
2022/11/18 11:44:27;;;;;;;7.82;1.42;;;;;;;;;;5110068;28;20229;-84
2022/11/18 11:49:52;;;;;;;6.15;1.58;;;;;;;;;;5115834;28;20189;-84
2022/11/18 11:52:22;;;;;;;6.18;1.13;;;;;;;;;;5115762;28;20212;-84
2022/11/18 11:54:56;;;;;;;7.07;1.40;;;;;;;;;;5115588;28;20677;-84
2022/11/18 11:57:29;;;;;;;6.32;1.25;;;;;;;;;;5112744;28;20296;-84
2022/11/18 12:00:02;;;;;;;4.47;1.08;;;;;;;;;;5115505;28;20289;-83
2022/11/18 12:02:48;;;;;;;5.75;1.17;;;;;;;;;;5115710;28;20205;-84
2022/11/18 12:05:18;;;;;;;7.43;1.33;;;;;;;;;;5099108;28;20236;-84
2022/11/18 12:07:48;;;;;;;6.32;1.27;;;;;;;;;;5114920;28;20649;-83
2022/11/18 12:10:23;;;;;;;5.20;1.20;;;;;;;;;;5095591;28;20321;-83
2022/11/18 12:12:53;;;;;;;4.82;1.20;;;;;;;;;;5108095;28;20261;-83
2022/11/18 12:15:26;;;;;;;6.35;1.60;;;;;;;;;;5113740;28;20225;-83
2022/11/18 12:18:01;;;;;;;7.03;1.70;;;;;;;;;;5105379;28;20705;-83
2022/11/18 12:20:43;;;;;;;5.15;1.65;;;;;;;;;;5094955;28;20202;-84
2022/11/18 12:23:17;;;;;;;6.18;1.15;;;;;;;;;;5095067;28;20210;-83
2022/11/18 12:25:52;;;;;;;6.88;1.70;;;;;;;;;;5094486;28;20198;-83
2022/11/18 12:28:24;;;;;;;7.75;1.50;;;;;;;;;;5094770;28;20198;-84
2022/11/18 12:30:51;;;;;;;4.28;1.23;;;;;;;;;;5108375;28;20644;-84
2022/11/18 12:33:19;;;;;;;6.72;1.52;;;;;;;;;;5114897;27;20615;-84
2022/11/18 12:35:48;;;;;;;4.18;1.50;;;;;;;;;;5114633;28;20232;-84
2022/11/18 12:38:29;;;;;;;3.35;1.08;;;;;;;;;;5114210;28;20290;-84
2022/11/18 12:40:58;;;;;;;5.18;1.35;;;;;;;;;;5101681;28;20229;-84
2022/11/18 12:43:46;;;;;;;5.32;1.27;;;;;;;;;;5114739;28;20240;-84
2022/11/18 12:46:28;;;;;;;6.95;1.30;;;;;;;;;;5111131;28;20193;-84
2022/11/18 12:48:57;;;;;;;6.38;1.60;;;;;;;;;;5100824;28;20674;-83
2022/11/18 12:51:45;;;;;;;6.00;1.50;;;;;;;;;;5073019;28;20282;-84
2022/11/18 12:54:30;;;;;;;4.90;1.45;;;;;;;;;;5085270;28;20216;-83
2022/11/18 12:57:00;;;;;;;5.88;1.40;;;;;;;;;;5100965;28;20379;-83
2022/11/18 12:59:32;;;;;;;6.28;1.40;;;;;;;;;;5108409;28;20229;-83
2022/11/18 13:02:04;;;;;;;6.55;1.45;;;;;;;;;;5096577;28;20604;-83
2022/11/18 13:04:31;;;;;;;5.25;1.17;;;;;;;;;;5104390;28;20234;-83
2022/11/18 13:06:59;;;;;;;6.45;1.45;;;;;;;;;;5104974;28;20225;-83
2022/11/18 13:09:30;;;;;;;7.15;1.73;;;;;;;;;;5097725;28;20202;-83
2022/11/18 13:12:01;;;;;;;5.78;1.42;;;;;;;;;;5109080;28;20797;-84
2022/11/18 13:20:19;;;;;;;6.68;1.40;;;;;;;;;;5085798;28;20290;-82
2022/11/18 13:25:35;;;;;;;5.97;1.20;;;;;;;;;;5113221;28;20188;-83
2022/11/18 13:28:08;;;;;;;7.13;1.48;;;;;;;;;;5111683;28;20198;-83
2022/11/18 13:30:37;;;;;;;4.07;1.20;;;;;;;;;;5099529;27;20669;-83
2022/11/18 13:33:04;;;;;;;5.55;1.55;;;;;;;;;;5103405;28;20221;-83
2022/11/18 13:35:32;;;;;;;3.50;1.20;;;;;;;;;;5096243;28;20237;-83
2022/11/18 13:37:59;;;;;;;6.15;1.30;;;;;;;;;;5110581;28;20253;-83
2022/11/18 13:40:28;;;;;;;5.35;1.67;;;;;;;;;;5108735;28;20222;-82
2022/11/18 13:42:55;;;;;;;4.95;1.85;;;;;;;;;;5093355;28;20708;-83
2022/11/18 13:45:26;;;;;;;6.53;1.70;;;;;;;;;;5104291;28;20678;-83
2022/11/18 13:47:56;;;;;;;4.63;1.33;;;;;;;;;;5112317;28;20259;-82
2022/11/18 13:50:25;;;;;;;5.47;1.77;;;;;;;;;;5100466;28;20202;-83
2022/11/18 13:52:57;;;;;;;4.40;1.63;;;;;;;;;;5094333;28;20228;-82
2022/11/18 13:55:25;;;;;;;4.75;1.17;;;;;;;;;;5082399;28;20241;-83
2022/11/18 13:57:53;;;;;;;6.93;1.25;;;;;;;;;;5099519;28;20218;-83
2022/11/18 14:00:22;;;;;;;5.38;1.15;;;;;;;;;;5096568;28;20749;-83
2022/11/18 14:02:54;;;;;;;5.32;1.20;;;;;;;;;;5094226;28;20308;-82
2022/11/18 14:05:22;;;;;;;5.57;1.30;;;;;;;;;;5082991;28;20301;-82
2022/11/18 14:08:09;;;;;;;5.18;1.15;;;;;;;;;;5105594;28;20689;-82
2022/11/18 14:10:41;;;;;;;4.93;1.23;;;;;;;;;;5104365;28;20321;-82
2022/11/18 14:13:23;;;;;;;7.93;1.90;;;;;;;;;;5092536;28;20244;-82
2022/11/18 14:15:50;;;;;;;7.40;1.50;;;;;;;;;;5105824;28;20622;-81
2022/11/18 14:18:38;;;;;;;9.50;1.70;;;;;;;;;;5096130;28;20245;-82
2022/11/18 14:21:07;;;;;;;8.13;1.80;;;;;;;;;;5094261;28;20725;-81
2022/11/18 14:23:35;;;;;;;6.70;1.27;;;;;;;;;;5112482;28;20797;-81
2022/11/18 14:26:03;;;;;;;9.53;1.47;;;;;;;;;;5099047;28;20289;-81
2022/11/18 14:28:32;;;;;;;6.00;1.40;;;;;;;;;;5093043;28;20651;-81
2022/11/18 14:31:04;;;;;;;5.87;1.80;;;;;;;;;;5093220;28;20190;-81
2022/11/18 14:33:31;;;;;;;10.63;1.67;;;;;;;;;;5100823;28;20673;-80
2022/11/18 14:36:00;;;;;;;7.80;1.50;;;;;;;;;;5106269;28;20285;-80
2022/11/18 14:38:37;;;;;;;5.23;1.00;;;;;;;;;;5105182;28;20246;-79
2022/11/18 14:41:06;;;;;;;5.50;1.10;;;;;;;;;;5097752;28;20200;-80
2022/11/18 14:43:33;;;;;;;4.27;0.80;;;;;;;;;;5112853;28;20734;-80
2022/11/18 14:46:04;;;;;;;3.57;0.90;;;;;;;;;;5108883;28;20605;-80
2022/11/18 14:48:32;;;;;;;4.07;0.97;;;;;;;;;;5099890;28;20281;-80
2022/11/18 14:51:01;;;;;;;5.90;1.17;;;;;;;;;;5099770;28;20747;-80
2022/11/18 14:53:29;;;;;;;5.93;1.30;;;;;;;;;;5097300;28;20199;-80
2022/11/18 14:56:00;;;;;;;3.60;0.90;;;;;;;;;;5101539;28;20289;-80
2022/11/18 14:58:27;;;;;;;3.53;0.80;;;;;;;;;;5098260;28;20267;-80
2022/11/18 15:00:55;;;;;;;3.33;0.90;;;;;;;;;;5101799;28;20704;-80
2022/11/18 15:03:22;;;;;;;3.30;0.70;;;;;;;;;;5099630;28;20284;-80
2022/11/18 15:05:50;;;;;;;2.07;0.60;;;;;;;;;;5105291;28;20200;-80
2022/11/18 15:08:17;;;;;;;3.73;0.80;;;;;;;;;;5092322;28;20222;-80
2022/11/18 15:10:44;;;;;;;3.67;0.67;;;;;;;;;;5099435;28;20229;-80
2022/11/18 15:13:13;;;;;;;4.80;1.17;;;;;;;;;;5103838;28;20678;-79
2022/11/18 15:15:40;;;;;;;5.30;1.00;;;;;;;;;;5107651;28;20736;-80